createdAt,value
2023-05-18T00:00:47.755Z,9.711737
2023-05-18T00:01:47.628Z,9.711713
2023-05-18T00:02:48.474Z,9.711736
2023-05-18T00:03:47.761Z,9.711671
2023-05-18T00:04:47.660Z,9.711693
2023-05-18T00:05:47.606Z,9.711699
2023-05-18T00:06:47.627Z,9.711670
2023-05-18T00:07:47.815Z,9.711696
2023-05-18T00:08:47.592Z,9.711678
2023-05-18T00:09:47.581Z,9.711687
2023-05-18T00:10:47.553Z,9.711680
2023-05-18T00:11:47.564Z,9.711689
2023-05-18T00:12:47.570Z,9.711683
2023-05-18T00:13:47.525Z,9.711726
2023-05-18T00:14:48.528Z,9.711808
2023-05-18T00:15:47.657Z,9.712163
2023-05-18T00:16:47.767Z,9.712306
2023-05-18T00:17:47.516Z,9.711928
2023-05-18T00:18:47.624Z,9.711819
2023-05-18T00:19:47.491Z,9.711721
2023-05-18T00:31:50.020Z,9.712065
2023-05-18T00:32:49.984Z,9.711849
2023-05-18T00:33:49.969Z,9.712126
2023-05-18T00:34:49.967Z,9.711691
2023-05-18T00:35:50.902Z,9.711773
2023-05-18T00:36:49.958Z,9.711761
2023-05-18T00:37:49.921Z,9.711742
2023-05-18T00:38:49.913Z,9.711746
2023-05-18T00:39:49.908Z,9.711775
2023-05-18T00:40:49.952Z,9.711763
2023-05-18T00:41:49.900Z,9.711733
2023-05-18T00:42:49.892Z,9.711739
2023-05-18T00:43:49.889Z,9.711735
2023-05-18T00:44:49.857Z,9.711750
2023-05-18T00:45:49.887Z,9.711707
2023-05-18T00:46:49.838Z,9.711745
2023-05-18T00:47:49.867Z,9.711769
2023-05-18T00:48:49.829Z,9.711782
2023-05-18T00:49:49.842Z,9.711811
2023-05-18T00:50:49.866Z,9.711698
2023-05-18T00:51:49.849Z,9.711792
2023-05-18T00:52:49.814Z,9.711786
2023-05-18T00:53:49.829Z,9.711761
2023-05-18T00:54:49.787Z,9.711665
2023-05-18T00:55:49.785Z,9.711713
2023-05-18T00:56:49.810Z,9.711704
2023-05-18T00:57:49.792Z,9.711713
2023-05-18T00:58:49.802Z,9.711716
2023-05-18T00:59:49.741Z,9.711698
2023-05-18T01:00:49.753Z,9.711717
2023-05-18T01:01:49.732Z,9.711692
2023-05-18T01:02:49.874Z,9.711652
2023-05-18T01:03:49.735Z,9.711658
2023-05-18T01:04:49.704Z,9.711650
2023-05-18T01:05:49.693Z,9.711705
2023-05-18T01:06:49.698Z,9.711678
2023-05-18T01:07:50.454Z,9.711668
2023-05-18T01:08:49.696Z,9.711657
2023-05-18T01:09:49.659Z,9.711669
2023-05-18T01:10:49.666Z,9.711633
2023-05-18T01:11:49.636Z,9.711660
2023-05-18T01:12:49.667Z,9.711674
2023-05-18T01:13:49.632Z,9.711671
2023-05-18T01:14:49.716Z,9.711660
2023-05-18T01:15:49.612Z,9.711606
2023-05-18T01:16:50.447Z,9.711604
2023-05-18T01:17:49.664Z,9.711627
2023-05-18T01:18:50.635Z,9.711639
2023-05-18T01:19:49.588Z,9.711542
2023-05-18T01:20:49.622Z,9.711650
2023-05-18T01:21:49.577Z,9.711682
2023-05-18T01:22:49.554Z,9.711617
2023-05-18T01:23:49.591Z,9.711679
2023-05-18T01:24:49.550Z,9.711698
2023-05-18T01:25:49.579Z,9.711689
2023-05-18T01:26:49.525Z,9.711730
2023-05-18T01:27:49.529Z,9.711618
2023-05-18T01:28:49.577Z,9.711619
2023-05-18T01:29:49.495Z,9.711617
2023-05-18T01:30:49.563Z,9.711654
2023-05-18T01:31:49.498Z,9.711656
2023-05-18T01:32:49.605Z,9.711664
2023-05-18T01:33:49.500Z,9.711645
2023-05-18T01:34:49.482Z,9.711783
2023-05-18T01:35:50.341Z,9.711667
2023-05-18T01:36:49.442Z,9.711690
2023-05-18T01:37:49.441Z,9.711731
2023-05-18T01:38:49.433Z,9.711724
2023-05-18T01:39:49.918Z,9.711682
2023-05-18T01:40:49.415Z,9.711770
2023-05-18T01:41:49.420Z,9.711666
2023-05-18T01:42:49.408Z,9.711713
2023-05-18T01:43:49.391Z,9.711669
2023-05-18T01:44:49.452Z,9.711782
2023-05-18T01:45:49.373Z,9.711740
2023-05-18T01:46:49.392Z,9.711550
2023-05-18T01:47:49.428Z,9.711704
2023-05-18T01:48:49.357Z,9.711690
2023-05-18T01:49:49.361Z,9.711504
2023-05-18T01:50:50.328Z,9.711659
2023-05-18T01:51:49.347Z,9.711645
2023-05-18T01:52:49.339Z,9.711699
2023-05-18T01:53:49.317Z,9.711615
2023-05-18T01:54:49.835Z,9.711669
2023-05-18T01:55:49.296Z,9.711696
2023-05-18T01:56:49.303Z,9.711539
2023-05-18T01:57:49.289Z,9.711808
2023-05-18T01:58:49.275Z,9.711695
2023-05-18T01:59:49.277Z,9.711696
2023-05-18T02:00:49.296Z,9.711892
2023-05-18T02:01:49.317Z,9.711833
2023-05-18T02:02:49.298Z,9.711679
2023-05-18T02:03:49.284Z,9.711850
2023-05-18T02:04:49.239Z,9.712009
2023-05-18T02:05:49.241Z,9.711863
2023-05-18T02:06:49.924Z,9.711828
2023-05-18T02:07:49.759Z,9.711721
2023-05-18T02:08:50.225Z,9.711678
2023-05-18T02:09:49.928Z,9.711823
2023-05-18T02:10:49.189Z,9.711746
2023-05-18T02:11:49.179Z,9.711620
2023-05-18T02:12:49.176Z,9.711772
2023-05-18T02:13:49.173Z,9.711692
2023-05-18T02:14:49.157Z,9.711675
2023-05-18T02:15:49.198Z,9.711721
2023-05-18T02:16:49.207Z,9.711665
2023-05-18T02:17:50.989Z,9.711739
2023-05-18T02:18:49.169Z,9.711586
2023-05-18T02:19:49.105Z,9.711568
2023-05-18T02:20:49.109Z,9.711577
2023-05-18T02:21:49.113Z,9.711556
2023-05-18T02:22:49.092Z,9.711666
2023-05-18T02:23:49.105Z,9.711629
2023-05-18T02:24:49.084Z,9.711666
2023-05-18T02:25:49.072Z,9.711648
2023-05-18T02:26:49.060Z,9.711657
2023-05-18T02:27:49.059Z,9.711659
2023-05-18T02:28:49.045Z,9.711638
2023-05-18T02:29:49.037Z,9.711630
2023-05-18T02:30:49.045Z,9.711645
2023-05-18T02:31:49.113Z,9.711734
2023-05-18T02:32:49.084Z,9.711720
2023-05-18T02:33:49.002Z,9.711699
2023-05-18T02:34:50.837Z,9.711649
2023-05-18T02:35:49.011Z,9.711643
2023-05-18T02:36:49.059Z,9.711625
2023-05-18T02:37:49.067Z,9.711647
2023-05-18T02:38:49.095Z,9.711636
2023-05-18T02:39:49.003Z,9.711633
2023-05-18T02:40:48.958Z,9.711575
2023-05-18T02:41:48.946Z,9.711564
2023-05-18T02:42:50.818Z,9.711613
2023-05-18T02:43:48.923Z,9.711629
2023-05-18T02:44:48.923Z,9.711674
2023-05-18T02:45:48.946Z,9.711625
2023-05-18T02:46:48.905Z,9.711546
2023-05-18T02:47:48.941Z,9.711519
2023-05-18T02:48:48.907Z,9.711578
2023-05-18T02:49:48.882Z,9.711658
2023-05-18T02:50:48.874Z,9.711638
2023-05-18T02:51:48.872Z,9.711659
2023-05-18T02:52:48.899Z,9.711630
2023-05-18T02:53:48.852Z,9.711605
2023-05-18T02:54:48.842Z,9.711620
2023-05-18T02:55:48.845Z,9.711567
2023-05-18T02:56:48.822Z,9.711568
2023-05-18T02:57:48.844Z,9.711532
2023-05-18T02:58:48.807Z,9.711553
2023-05-18T02:59:48.795Z,9.711596
2023-05-18T03:00:49.487Z,9.711469
2023-05-18T03:01:48.932Z,9.711457
2023-05-18T03:02:48.915Z,9.711580
2023-05-18T03:03:48.878Z,9.711549
2023-05-18T03:04:49.508Z,9.711474
2023-05-18T03:05:49.786Z,9.711542
2023-05-18T03:06:48.762Z,9.711522
2023-05-18T03:07:48.733Z,9.711598
2023-05-18T03:08:48.739Z,9.711591
2023-05-18T03:09:48.732Z,9.711642
2023-05-18T03:10:48.712Z,9.711658
2023-05-18T03:11:48.714Z,9.711605
2023-05-18T03:12:48.708Z,9.711703
2023-05-18T03:13:48.700Z,9.711699
2023-05-18T03:14:48.684Z,9.711728
2023-05-18T03:15:48.666Z,9.711643
2023-05-18T03:16:48.744Z,9.711697
2023-05-18T03:17:48.710Z,9.711650
2023-05-18T03:18:48.726Z,9.711686
2023-05-18T03:19:48.651Z,9.711881
2023-05-18T03:20:48.676Z,9.711778
2023-05-18T03:21:48.620Z,9.711660
2023-05-18T03:22:48.632Z,9.711706
2023-05-18T03:23:48.633Z,9.711641
2023-05-18T03:24:48.609Z,9.711764
2023-05-18T03:25:48.631Z,9.711749
2023-05-18T03:26:48.613Z,9.711755
2023-05-18T03:27:48.585Z,9.711692
2023-05-18T03:28:48.628Z,9.711708
2023-05-18T03:29:48.564Z,9.711775
2023-05-18T03:30:48.567Z,9.711792
2023-05-18T03:31:48.682Z,9.711849
2023-05-18T03:32:48.556Z,9.711718
2023-05-18T03:33:48.548Z,9.711670
2023-05-18T03:34:48.535Z,9.711726
2023-05-18T03:35:48.781Z,9.711800
2023-05-18T03:36:49.514Z,9.711689
2023-05-18T03:37:48.518Z,9.711616
2023-05-18T03:38:48.509Z,9.711631
2023-05-18T03:39:48.484Z,9.711676
2023-05-18T03:40:48.482Z,9.711720
2023-05-18T03:41:48.483Z,9.711785
2023-05-18T03:42:48.483Z,9.711823
2023-05-18T03:43:48.460Z,9.711934
2023-05-18T03:44:48.454Z,9.711883
2023-05-18T03:45:48.441Z,9.711727
2023-05-18T03:46:50.447Z,9.711733
2023-05-18T03:47:49.524Z,9.711661
2023-05-18T03:48:48.422Z,9.711634
2023-05-18T03:49:48.426Z,9.711612
2023-05-18T03:50:48.399Z,9.711638
2023-05-18T03:51:48.397Z,9.711615
2023-05-18T03:52:49.399Z,9.711564
2023-05-18T03:53:48.370Z,9.711575
2023-05-18T03:54:48.381Z,9.711637
2023-05-18T03:55:48.378Z,9.711605
2023-05-18T03:56:48.370Z,9.711669
2023-05-18T03:57:48.344Z,9.711658
2023-05-18T03:58:48.351Z,9.711607
2023-05-18T03:59:48.317Z,9.711587
2023-05-18T04:00:48.340Z,9.711590
2023-05-18T04:01:48.347Z,9.711630
2023-05-18T04:02:48.343Z,9.711608
2023-05-18T04:03:48.355Z,9.711582
2023-05-18T04:04:48.283Z,9.711644
2023-05-18T04:05:48.287Z,9.711696
2023-05-18T04:06:48.276Z,9.711679
2023-05-18T04:07:48.266Z,9.711674
2023-05-18T04:08:48.281Z,9.711731
2023-05-18T04:09:48.250Z,9.711726
2023-05-18T04:10:48.249Z,9.711717
2023-05-18T04:11:48.229Z,9.711699
2023-05-18T04:12:48.225Z,9.711690
2023-05-18T04:13:48.256Z,9.711654
2023-05-18T04:14:48.197Z,9.711638
2023-05-18T04:15:48.194Z,9.711512
2023-05-18T04:16:48.297Z,9.711580
2023-05-18T04:17:48.212Z,9.711745
2023-05-18T04:18:48.255Z,9.711592
2023-05-18T04:19:48.173Z,9.711715
2023-05-18T04:20:48.154Z,9.711806
2023-05-18T04:21:48.156Z,9.711713
2023-05-18T04:22:48.383Z,9.711769
2023-05-18T04:23:48.153Z,9.711769
2023-05-18T04:24:48.153Z,9.711590
2023-05-18T04:25:48.203Z,9.711863
2023-05-18T04:26:48.112Z,9.711767
2023-05-18T04:27:49.896Z,9.711791
2023-05-18T04:28:48.101Z,9.711623
2023-05-18T04:29:48.087Z,9.711669
2023-05-18T04:30:48.093Z,9.711769
2023-05-18T04:31:48.182Z,9.711883
2023-05-18T04:32:48.152Z,9.711839
2023-05-18T04:33:48.119Z,9.711798
2023-05-18T04:34:48.046Z,9.711841
2023-05-18T04:35:48.867Z,9.711664
2023-05-18T04:36:48.025Z,9.711692
2023-05-18T04:37:48.046Z,9.711674
2023-05-18T04:38:48.033Z,9.711678
2023-05-18T04:39:48.024Z,9.711744
2023-05-18T04:40:48.007Z,9.711716
2023-05-18T04:41:47.988Z,9.711722
2023-05-18T04:42:48.683Z,9.711658
2023-05-18T04:43:47.972Z,9.711570
2023-05-18T04:44:47.958Z,9.711670
2023-05-18T04:45:47.988Z,9.711563
2023-05-18T04:46:47.955Z,9.711578
2023-05-18T04:47:47.963Z,9.711625
2023-05-18T04:48:47.938Z,9.711620
2023-05-18T04:49:47.946Z,9.711620
2023-05-18T04:50:47.934Z,9.711726
2023-05-18T04:51:48.947Z,9.711727
2023-05-18T04:52:47.922Z,9.711678
2023-05-18T04:53:47.916Z,9.711567
2023-05-18T04:54:47.894Z,9.711787
2023-05-18T04:55:47.888Z,9.711738
2023-05-18T04:56:48.330Z,9.711698
2023-05-18T04:57:47.873Z,9.711710
2023-05-18T04:58:48.887Z,9.711685
2023-05-18T04:59:47.973Z,9.711699
2023-05-18T05:00:47.822Z,9.711664
2023-05-18T05:01:47.974Z,9.711674
2023-05-18T05:02:48.417Z,9.711683
2023-05-18T05:03:47.915Z,9.711666
2023-05-18T05:04:47.815Z,9.711721
2023-05-18T05:05:47.822Z,9.711695
2023-05-18T05:06:47.788Z,9.711705
2023-05-18T05:07:47.762Z,9.711725
2023-05-18T05:08:47.799Z,9.711661
2023-05-18T05:09:47.744Z,9.711662
2023-05-18T05:10:47.735Z,9.711659
2023-05-18T05:11:47.745Z,9.711647
2023-05-18T05:12:49.486Z,9.711660
2023-05-18T05:13:48.719Z,9.711658
2023-05-18T05:14:47.741Z,9.711607
2023-05-18T05:15:47.747Z,9.711788
2023-05-18T05:16:47.692Z,9.711643
2023-05-18T05:17:47.750Z,9.711673
2023-05-18T05:18:47.740Z,9.711698
2023-05-18T05:19:47.682Z,9.711620
2023-05-18T05:20:47.670Z,9.711708
2023-05-18T05:21:47.643Z,9.711740
2023-05-18T05:22:47.813Z,9.711733
2023-05-18T05:23:47.641Z,9.711716
2023-05-18T05:24:47.631Z,9.711575
2023-05-18T05:25:47.638Z,9.711658
2023-05-18T05:26:47.624Z,9.711520
2023-05-18T05:27:47.622Z,9.711560
2023-05-18T05:28:47.591Z,9.711601
2023-05-18T05:29:47.591Z,9.711418
2023-05-18T05:30:47.590Z,9.711327
2023-05-18T05:31:47.584Z,9.711497
2023-05-18T05:32:47.586Z,9.711638
2023-05-18T05:33:47.571Z,9.711748
2023-05-18T05:34:47.687Z,9.711669
2023-05-18T05:35:47.569Z,9.711777
2023-05-18T05:36:47.536Z,9.711744
2023-05-18T05:37:47.551Z,9.711757
2023-05-18T05:38:47.524Z,9.711744
2023-05-18T05:39:47.508Z,9.711878
2023-05-18T05:40:47.517Z,9.711816
2023-05-18T05:41:47.502Z,9.711702
2023-05-18T05:42:47.501Z,9.711712
2023-05-18T05:43:47.488Z,9.711593
2023-05-18T05:44:47.486Z,9.711512
2023-05-18T05:45:47.472Z,9.711476
2023-05-18T05:46:47.523Z,9.711415
2023-05-18T05:47:47.534Z,9.711450
2023-05-18T05:48:47.446Z,9.711544
2023-05-18T05:49:48.372Z,9.711502
2023-05-18T05:50:48.435Z,9.711530
2023-05-18T05:51:47.429Z,9.711534
2023-05-18T05:52:47.434Z,9.711523
2023-05-18T05:53:47.980Z,9.711501
2023-05-18T05:54:47.396Z,9.711499
2023-05-18T05:55:47.402Z,9.711587
2023-05-18T05:56:47.395Z,9.711549
2023-05-18T05:57:47.395Z,9.711587
2023-05-18T05:58:47.369Z,9.711566
2023-05-18T05:59:47.359Z,9.711613
2023-05-18T06:00:47.355Z,9.711668
2023-05-18T06:01:47.917Z,9.711678
2023-05-18T06:02:47.339Z,9.711495
2023-05-18T06:03:47.351Z,9.711513
2023-05-18T06:04:47.325Z,9.711511
2023-05-18T06:05:47.338Z,9.711554
2023-05-18T06:06:47.299Z,9.711535
2023-05-18T06:07:47.292Z,9.711610
2023-05-18T06:08:47.279Z,9.711615
2023-05-18T06:09:47.269Z,9.711717
2023-05-18T06:10:47.282Z,9.711862
2023-05-18T06:11:47.245Z,9.711826
2023-05-18T06:12:47.258Z,9.711763
2023-05-18T06:13:47.265Z,9.711774
2023-05-18T06:14:47.254Z,9.711824
2023-05-18T06:15:47.223Z,9.711720
2023-05-18T06:16:47.263Z,9.711723
2023-05-18T06:17:47.314Z,9.712025
2023-05-18T06:18:47.355Z,9.712038
2023-05-18T06:19:47.230Z,9.712087
2023-05-18T06:20:47.264Z,9.712137
2023-05-18T06:21:47.183Z,9.712086
2023-05-18T06:22:47.182Z,9.712110
2023-05-18T06:23:47.173Z,9.711957
2023-05-18T06:24:47.161Z,9.712072
2023-05-18T06:25:47.187Z,9.712135
2023-05-18T06:26:47.144Z,9.712352
2023-05-18T06:27:47.140Z,9.712439
2023-05-18T06:28:47.128Z,9.712362
2023-05-18T06:29:47.110Z,9.712695
2023-05-18T06:30:47.118Z,9.712654
2023-05-18T06:31:47.130Z,9.712461
2023-05-18T06:32:47.181Z,9.712474
2023-05-18T06:33:47.113Z,9.712482
2023-05-18T06:34:47.119Z,9.712683
2023-05-18T06:35:47.080Z,9.712611
2023-05-18T06:36:47.076Z,9.712345
2023-05-18T06:37:47.208Z,9.712367
2023-05-18T06:38:47.923Z,9.712431
2023-05-18T06:39:47.056Z,9.712263
2023-05-18T06:40:47.029Z,9.712008
2023-05-18T06:41:47.032Z,9.711913
2023-05-18T06:42:47.037Z,9.711815
2023-05-18T06:43:47.021Z,9.711903
2023-05-18T06:44:47.004Z,9.711903
2023-05-18T06:45:47.028Z,9.711824
2023-05-18T06:46:47.020Z,9.711755
2023-05-18T06:47:47.006Z,9.711735
2023-05-18T06:48:47.033Z,9.711703
2023-05-18T06:49:46.969Z,9.711692
2023-05-18T06:50:46.956Z,9.711666
2023-05-18T06:51:46.952Z,9.711685
2023-05-18T06:52:46.944Z,9.711677
2023-05-18T06:53:46.953Z,9.711701
2023-05-18T06:54:46.950Z,9.711667
2023-05-18T06:55:46.923Z,9.711679
2023-05-18T06:56:46.896Z,9.711673
2023-05-18T06:57:46.910Z,9.711648
2023-05-18T06:58:46.898Z,9.711690
2023-05-18T06:59:46.895Z,9.711666
2023-05-18T07:00:46.882Z,9.711639
2023-05-18T07:01:46.890Z,9.711759
2023-05-18T07:02:46.850Z,9.711732
2023-05-18T07:03:46.914Z,9.711623
2023-05-18T07:04:46.884Z,9.711689
2023-05-18T07:05:46.839Z,9.711630
2023-05-18T07:06:47.403Z,9.711629
2023-05-18T07:07:48.433Z,9.711759
2023-05-18T07:08:46.802Z,9.711688
2023-05-18T07:09:46.798Z,9.711722
2023-05-18T07:10:46.781Z,9.711686
2023-05-18T07:11:46.785Z,9.711674
2023-05-18T07:12:46.778Z,9.711663
2023-05-18T07:13:46.761Z,9.711637
2023-05-18T07:14:46.772Z,9.711629
2023-05-18T07:15:46.743Z,9.711666
2023-05-18T07:16:46.774Z,9.711655
2023-05-18T07:17:46.744Z,9.711714
2023-05-18T07:18:46.743Z,9.711726
2023-05-18T07:19:46.713Z,9.711729
2023-05-18T07:20:48.504Z,9.711720
2023-05-18T07:21:46.753Z,9.711714
2023-05-18T07:22:46.699Z,9.711679
2023-05-18T07:23:46.689Z,9.711676
2023-05-18T07:24:46.689Z,9.711655
2023-05-18T07:25:46.666Z,9.711622
2023-05-18T07:26:46.661Z,9.711709
2023-05-18T07:27:46.667Z,9.711769
2023-05-18T07:28:46.671Z,9.711827
2023-05-18T07:29:46.648Z,9.711721
2023-05-18T07:30:46.657Z,9.711619
2023-05-18T07:31:46.657Z,9.711756
2023-05-18T07:32:46.650Z,9.711789
2023-05-18T07:33:46.627Z,9.711715
2023-05-18T07:34:46.601Z,9.711728
2023-05-18T07:35:46.625Z,9.711745
2023-05-18T07:36:46.601Z,9.711872
2023-05-18T07:37:47.538Z,9.711836
2023-05-18T07:38:49.506Z,9.711679
2023-05-18T07:39:47.506Z,9.711617
2023-05-18T07:40:46.601Z,9.711709
2023-05-18T07:41:46.558Z,9.711699
2023-05-18T07:42:46.542Z,9.711809
2023-05-18T07:43:46.568Z,9.711769
2023-05-18T07:44:46.540Z,9.712302
2023-05-18T07:45:46.525Z,9.712244
2023-05-18T07:46:46.632Z,9.711890
2023-05-18T07:47:46.583Z,9.711657
2023-05-18T07:48:46.493Z,9.711694
2023-05-18T07:49:47.526Z,9.711584
2023-05-18T07:50:46.458Z,9.711681
2023-05-18T07:51:47.486Z,9.711765
2023-05-18T07:52:46.559Z,9.711789
2023-05-18T07:53:46.477Z,9.711864
2023-05-18T07:54:46.459Z,9.712271
2023-05-18T07:55:46.441Z,9.712215
2023-05-18T07:56:46.435Z,9.712096
2023-05-18T07:57:46.436Z,9.711901
2023-05-18T07:58:46.440Z,9.711966
2023-05-18T07:59:46.435Z,9.712447
2023-05-18T08:00:46.430Z,9.712175
2023-05-18T08:01:46.437Z,9.711788
2023-05-18T08:02:46.645Z,9.711645
2023-05-18T08:03:46.475Z,9.711576
2023-05-18T08:04:46.382Z,9.711806
2023-05-18T08:05:46.398Z,9.711938
2023-05-18T08:06:46.350Z,9.712173
2023-05-18T08:07:46.355Z,9.711912
2023-05-18T08:08:46.450Z,9.711923
2023-05-18T08:09:46.343Z,9.711816
2023-05-18T08:10:46.337Z,9.712116
2023-05-18T08:11:47.031Z,9.711920
2023-05-18T08:12:46.321Z,9.712156
2023-05-18T08:13:46.299Z,9.712194
2023-05-18T08:14:46.294Z,9.712319
2023-05-18T08:15:49.013Z,9.712216
2023-05-18T08:16:47.353Z,9.711987
2023-05-18T08:17:46.321Z,9.712205
2023-05-18T08:18:46.319Z,9.712388
2023-05-18T08:19:46.262Z,9.712407
2023-05-18T08:20:46.286Z,9.712469
2023-05-18T08:21:46.245Z,9.712165
2023-05-18T08:22:46.276Z,9.711927
2023-05-18T08:23:46.214Z,9.711853
2023-05-18T08:24:46.228Z,9.711904
2023-05-18T08:25:46.212Z,9.711894
2023-05-18T08:26:46.200Z,9.712099
2023-05-18T08:27:46.211Z,9.712164
2023-05-18T08:28:46.217Z,9.711876
2023-05-18T08:29:46.195Z,9.711732
2023-05-18T08:30:46.180Z,9.711729
2023-05-18T08:31:47.666Z,9.711855
2023-05-18T08:32:46.202Z,9.711799
2023-05-18T08:33:46.187Z,9.711765
2023-05-18T08:34:46.180Z,9.711720
2023-05-18T08:35:46.144Z,9.711729
2023-05-18T08:36:46.207Z,9.711670
2023-05-18T08:37:46.129Z,9.711835
2023-05-18T08:38:46.095Z,9.711763
2023-05-18T08:39:46.182Z,9.711756
2023-05-18T08:40:46.126Z,9.711686
2023-05-18T08:41:46.134Z,9.711722
2023-05-18T08:42:49.853Z,9.711737
2023-05-18T08:43:47.145Z,9.711696
2023-05-18T08:44:46.049Z,9.711683
2023-05-18T08:45:46.056Z,9.711680
2023-05-18T08:46:46.050Z,9.711671
2023-05-18T08:47:46.116Z,9.711637
2023-05-18T08:48:47.124Z,9.711678
2023-05-18T08:49:46.025Z,9.711745
2023-05-18T08:50:46.018Z,9.711626
2023-05-18T08:51:46.003Z,9.711528
2023-05-18T08:52:46.006Z,9.711611
2023-05-18T08:53:45.984Z,9.711650
2023-05-18T08:54:45.974Z,9.711625
2023-05-18T08:55:46.030Z,9.711650
2023-05-18T08:56:45.979Z,9.711696
2023-05-18T08:57:45.991Z,9.711683
2023-05-18T08:58:45.971Z,9.711618
2023-05-18T08:59:45.932Z,9.711616
2023-05-18T09:00:45.922Z,9.711618
2023-05-18T09:01:45.967Z,9.711634
2023-05-18T09:02:45.943Z,9.711662
2023-05-18T09:03:45.893Z,9.711643
2023-05-18T09:04:45.927Z,9.711641
2023-05-18T09:05:45.893Z,9.711667
2023-05-18T09:06:45.889Z,9.711701
2023-05-18T09:07:46.933Z,9.711663
2023-05-18T09:08:46.872Z,9.711660
2023-05-18T09:09:45.862Z,9.711641
2023-05-18T09:10:45.865Z,9.711644
2023-05-18T09:11:45.856Z,9.711632
2023-05-18T09:12:46.233Z,9.711645
2023-05-18T09:13:45.827Z,9.711662
2023-05-18T09:14:45.805Z,9.711668
2023-05-18T09:15:45.849Z,9.711685
2023-05-18T09:16:47.543Z,9.711665
2023-05-18T09:17:45.858Z,9.711610
2023-05-18T09:18:45.799Z,9.711621
2023-05-18T09:19:46.466Z,9.711643
2023-05-18T09:20:45.766Z,9.711696
2023-05-18T09:21:45.760Z,9.711650
2023-05-18T09:22:45.809Z,9.711666
2023-05-18T09:23:45.776Z,9.711690
2023-05-18T09:24:45.762Z,9.711677
2023-05-18T09:25:45.727Z,9.711748
2023-05-18T09:26:45.738Z,9.711685
2023-05-18T09:27:45.718Z,9.711663
2023-05-18T09:28:45.712Z,9.711682
2023-05-18T09:29:45.707Z,9.711753
2023-05-18T09:30:45.727Z,9.711729
2023-05-18T09:31:45.738Z,9.711630
2023-05-18T09:32:45.745Z,9.711723
2023-05-18T09:33:45.778Z,9.711742
2023-05-18T09:34:45.739Z,9.711730
2023-05-18T09:35:45.639Z,9.711769
2023-05-18T09:36:45.674Z,9.711613
2023-05-18T09:37:46.514Z,9.711719
2023-05-18T09:38:45.667Z,9.711776
2023-05-18T09:39:45.609Z,9.711836
2023-05-18T09:40:45.606Z,9.711861
2023-05-18T09:41:45.594Z,9.711683
2023-05-18T09:42:45.583Z,9.711757
2023-05-18T09:43:45.595Z,9.711691
2023-05-18T09:44:45.583Z,9.711876
2023-05-18T09:45:45.584Z,9.712081
2023-05-18T09:46:45.637Z,9.711934
2023-05-18T09:47:45.608Z,9.712051
2023-05-18T09:48:45.549Z,9.712084
2023-05-18T09:49:45.519Z,9.712062
2023-05-18T09:50:45.529Z,9.711864
2023-05-18T09:51:45.517Z,9.711893
2023-05-18T09:52:45.522Z,9.711933
2023-05-18T09:53:45.492Z,9.712002
2023-05-18T09:54:45.532Z,9.712088
2023-05-18T09:55:45.493Z,9.712207
2023-05-18T09:56:52.314Z,9.711972
2023-05-18T09:57:46.485Z,9.711922
2023-05-18T09:58:45.465Z,9.712000
2023-05-18T09:59:45.462Z,9.712244
2023-05-18T10:00:45.529Z,9.712324
2023-05-18T10:01:45.447Z,9.712051
2023-05-18T10:02:45.496Z,9.712193
2023-05-18T10:03:45.432Z,9.711784
2023-05-18T10:04:45.455Z,9.711577
2023-05-18T10:05:45.416Z,9.711716
2023-05-18T10:06:45.968Z,9.711903
2023-05-18T10:07:45.413Z,9.711954
2023-05-18T10:08:45.393Z,9.711698
2023-05-18T10:09:45.361Z,9.711931
2023-05-18T10:10:45.355Z,9.711799
2023-05-18T10:11:45.360Z,9.711880
2023-05-18T10:12:45.384Z,9.711677
2023-05-18T10:13:45.359Z,9.711756
2023-05-18T10:14:45.359Z,9.711838
2023-05-18T10:15:45.333Z,9.712630
2023-05-18T10:16:45.483Z,9.712412
2023-05-18T10:17:45.403Z,9.711900
2023-05-18T10:18:45.335Z,9.711479
2023-05-18T10:19:45.308Z,9.711739
2023-05-18T10:20:46.355Z,9.710994
2023-05-18T10:21:45.301Z,9.711043
2023-05-18T10:22:45.275Z,9.711267
2023-05-18T10:23:45.262Z,9.711267
2023-05-18T10:24:45.235Z,9.711316
2023-05-18T10:25:45.245Z,9.710999
2023-05-18T10:26:45.260Z,9.711364
2023-05-18T10:27:45.241Z,9.711670
2023-05-18T10:28:45.236Z,9.711835
2023-05-18T10:29:45.215Z,9.711057
2023-05-18T10:30:45.237Z,9.710979
2023-05-18T10:31:45.199Z,9.711510
2023-05-18T10:32:45.189Z,9.711778
2023-05-18T10:33:45.181Z,9.712013
2023-05-18T10:34:45.238Z,9.711771
2023-05-18T10:35:45.194Z,9.711333
2023-05-18T10:36:45.159Z,9.711420
2023-05-18T10:37:45.138Z,9.711437
2023-05-18T10:38:45.134Z,9.711497
2023-05-18T10:39:45.131Z,9.711458
2023-05-18T10:40:45.125Z,9.711324
2023-05-18T10:41:45.137Z,9.711359
2023-05-18T10:42:45.153Z,9.711448
2023-05-18T10:43:45.104Z,9.711246
2023-05-18T10:44:45.092Z,9.711433
2023-05-18T10:45:45.067Z,9.711505
2023-05-18T10:46:45.122Z,9.711146
2023-05-18T10:47:45.266Z,9.711040
2023-05-18T10:48:46.826Z,9.711282
2023-05-18T10:49:46.042Z,9.711218
2023-05-18T10:50:45.051Z,9.711271
2023-05-18T10:51:45.607Z,9.711743
2023-05-18T10:52:45.025Z,9.711773
2023-05-18T10:53:46.599Z,9.711615
2023-05-18T10:54:44.999Z,9.711162
2023-05-18T10:55:45.117Z,9.711279
2023-05-18T10:56:46.999Z,9.711458
2023-05-18T10:57:45.018Z,9.711609
2023-05-18T10:58:44.975Z,9.711505
2023-05-18T10:59:47.449Z,9.711483
2023-05-18T11:00:44.954Z,9.711616
2023-05-18T11:01:45.014Z,9.711620
2023-05-18T11:02:45.177Z,9.711669
2023-05-18T11:03:44.927Z,9.711672
2023-05-18T11:04:44.961Z,9.711585
2023-05-18T11:05:44.917Z,9.711504
2023-05-18T11:06:44.906Z,9.711578
2023-05-18T11:07:44.932Z,9.711622
2023-05-18T11:08:44.954Z,9.711524
2023-05-18T11:09:44.896Z,9.711553
2023-05-18T11:10:44.899Z,9.711572
2023-05-18T11:11:44.870Z,9.711582
2023-05-18T11:12:44.857Z,9.711578
2023-05-18T11:13:44.846Z,9.711505
2023-05-18T11:14:44.856Z,9.711538
2023-05-18T11:15:44.907Z,9.711567
2023-05-18T11:16:44.845Z,9.711630
2023-05-18T11:17:44.870Z,9.711583
2023-05-18T11:18:44.843Z,9.711587
2023-05-18T11:19:45.815Z,9.711605
2023-05-18T11:20:44.937Z,9.711673
2023-05-18T11:21:44.786Z,9.711692
2023-05-18T11:22:44.789Z,9.711606
2023-05-18T11:23:44.800Z,9.711610
2023-05-18T11:24:44.785Z,9.711619
2023-05-18T11:25:44.755Z,9.711625
2023-05-18T11:26:44.794Z,9.711596
2023-05-18T11:27:44.744Z,9.711573
2023-05-18T11:28:44.726Z,9.711650
2023-05-18T11:29:44.729Z,9.711606
2023-05-18T11:30:44.709Z,9.711673
2023-05-18T11:31:44.774Z,9.711694
2023-05-18T11:32:44.754Z,9.711726
2023-05-18T11:33:44.752Z,9.711750
2023-05-18T11:34:44.686Z,9.711705
2023-05-18T11:35:44.692Z,9.711670
2023-05-18T11:36:44.758Z,9.711632
2023-05-18T11:37:44.661Z,9.711624
2023-05-18T11:38:44.660Z,9.711649
2023-05-18T11:39:55.528Z,9.711684
2023-05-18T11:40:46.675Z,9.711650
2023-05-18T11:41:44.623Z,9.711669
2023-05-18T11:42:44.623Z,9.711677
2023-05-18T11:43:44.617Z,9.711669
2023-05-18T11:44:44.611Z,9.711645
2023-05-18T11:45:44.597Z,9.711652
2023-05-18T11:46:45.586Z,9.711661
2023-05-18T11:47:44.646Z,9.711729
2023-05-18T11:48:44.625Z,9.711675
2023-05-18T11:49:44.575Z,9.711681
2023-05-18T11:50:44.569Z,9.711766
2023-05-18T11:51:44.539Z,9.711705
2023-05-18T11:52:44.557Z,9.711714
2023-05-18T11:53:44.548Z,9.711679
2023-05-18T11:54:44.541Z,9.711707
2023-05-18T11:55:44.547Z,9.711715